Terminal Aerodrome Forecast
Issued by NWS

Home | Current Version | Previous Version | Text Only | Print | Product List | Glossary On
Versions: 1 2 3 4 5 6 7 8 9 10 11 12 13 14 15 16
000
FTUS43 KPAH 211000 AAB
TAFCGI
TAF AMD
KCGI 211028Z 2110/2206 00000KT 2SM BR SKC
      TEMPO 2110/2112 1/4SM FG VV002
     FM211300 00000KT 5SM BR SKC
     FM211400 18002KT P6SM SCT050=

USA.gov is the U.S. government's official web portal to all federal, state and local government web resources and services.